sensor_id;sensor_type;location;lat;lon;timestamp;P1;durP1;ratioP1;P2;durP2;ratioP2
18695;SDS011;22617;43.690;27.956;2022-09-21T00:01:54;4.23;;;2.50;;
18695;SDS011;22617;43.690;27.956;2022-09-21T00:06:57;4.53;;;2.57;;
18695;SDS011;22617;43.690;27.956;2022-09-21T00:12:02;3.50;;;2.57;;
18695;SDS011;22617;43.690;27.956;2022-09-21T00:17:06;3.07;;;2.10;;
18695;SDS011;22617;43.690;27.956;2022-09-21T00:22:10;2.87;;;2.20;;
18695;SDS011;22617;43.690;27.956;2022-09-21T00:27:15;3.03;;;2.43;;
18695;SDS011;22617;43.690;27.956;2022-09-21T00:32:19;2.77;;;2.20;;
18695;SDS011;22617;43.690;27.956;2022-09-21T00:37:22;3.40;;;1.90;;
18695;SDS011;22617;43.690;27.956;2022-09-21T00:42:28;2.53;;;1.93;;
18695;SDS011;22617;43.690;27.956;2022-09-21T00:47:34;3.00;;;2.17;;
18695;SDS011;22617;43.690;27.956;2022-09-21T00:52:41;3.00;;;2.03;;
18695;SDS011;22617;43.690;27.956;2022-09-21T00:57:50;2.83;;;2.13;;
18695;SDS011;22617;43.690;27.956;2022-09-21T01:02:56;2.23;;;2.00;;
18695;SDS011;22617;43.690;27.956;2022-09-21T01:08:02;3.43;;;1.93;;
18695;SDS011;22617;43.690;27.956;2022-09-21T01:13:12;2.77;;;2.03;;
18695;SDS011;22617;43.690;27.956;2022-09-21T01:18:25;2.90;;;1.90;;
18695;SDS011;22617;43.690;27.956;2022-09-21T01:29:14;2.67;;;2.10;;
18695;SDS011;22617;43.690;27.956;2022-09-21T01:34:24;4.40;;;2.00;;
18695;SDS011;22617;43.690;27.956;2022-09-21T01:39:32;4.77;;;2.13;;
18695;SDS011;22617;43.690;27.956;2022-09-21T01:44:40;2.70;;;2.20;;
18695;SDS011;22617;43.690;27.956;2022-09-21T01:49:48;2.47;;;2.00;;
18695;SDS011;22617;43.690;27.956;2022-09-21T01:54:57;3.67;;;2.60;;
18695;SDS011;22617;43.690;27.956;2022-09-21T02:00:05;3.43;;;2.30;;
18695;SDS011;22617;43.690;27.956;2022-09-21T02:05:12;3.27;;;2.33;;
18695;SDS011;22617;43.690;27.956;2022-09-21T02:10:21;2.00;;;1.80;;
18695;SDS011;22617;43.690;27.956;2022-09-21T02:15:31;3.60;;;2.20;;
18695;SDS011;22617;43.690;27.956;2022-09-21T02:20:47;2.70;;;2.50;;
18695;SDS011;22617;43.690;27.956;2022-09-21T02:25:55;4.23;;;2.70;;
18695;SDS011;22617;43.690;27.956;2022-09-21T02:31:11;3.90;;;2.47;;
18695;SDS011;22617;43.690;27.956;2022-09-21T02:36:24;4.17;;;2.70;;
18695;SDS011;22617;43.690;27.956;2022-09-21T02:41:36;3.77;;;2.10;;
18695;SDS011;22617;43.690;27.956;2022-09-21T02:46:44;2.93;;;2.20;;
18695;SDS011;22617;43.690;27.956;2022-09-21T02:51:56;3.17;;;2.60;;
18695;SDS011;22617;43.690;27.956;2022-09-21T02:57:02;3.40;;;2.23;;
18695;SDS011;22617;43.690;27.956;2022-09-21T03:07:42;2.50;;;2.20;;
18695;SDS011;22617;43.690;27.956;2022-09-21T03:12:45;2.97;;;2.50;;
18695;SDS011;22617;43.690;27.956;2022-09-21T03:17:50;2.83;;;2.30;;
18695;SDS011;22617;43.690;27.956;2022-09-21T03:22:54;3.33;;;2.27;;
18695;SDS011;22617;43.690;27.956;2022-09-21T03:27:57;4.33;;;2.47;;
18695;SDS011;22617;43.690;27.956;2022-09-21T03:33:03;3.67;;;2.10;;
18695;SDS011;22617;43.690;27.956;2022-09-21T03:38:07;4.03;;;2.50;;
18695;SDS011;22617;43.690;27.956;2022-09-21T03:43:11;2.57;;;2.30;;
18695;SDS011;22617;43.690;27.956;2022-09-21T03:48:17;5.10;;;2.90;;
18695;SDS011;22617;43.690;27.956;2022-09-21T03:53:22;78.67;;;29.60;;
18695;SDS011;22617;43.690;27.956;2022-09-21T03:58:26;88.63;;;36.70;;
18695;SDS011;22617;43.690;27.956;2022-09-21T04:08:35;115.90;;;50.37;;
18695;SDS011;22617;43.690;27.956;2022-09-21T04:13:38;117.87;;;52.23;;
18695;SDS011;22617;43.690;27.956;2022-09-21T04:18:44;47.77;;;24.23;;
18695;SDS011;22617;43.690;27.956;2022-09-21T04:23:51;214.10;;;76.10;;
18695;SDS011;22617;43.690;27.956;2022-09-21T04:28:55;708.10;;;307.77;;
18695;SDS011;22617;43.690;27.956;2022-09-21T04:34:00;379.13;;;142.40;;
18695;SDS011;22617;43.690;27.956;2022-09-21T04:39:04;220.00;;;85.33;;
18695;SDS011;22617;43.690;27.956;2022-09-21T04:44:08;938.23;;;403.03;;
18695;SDS011;22617;43.690;27.956;2022-09-21T04:49:13;1417.43;;;635.23;;
18695;SDS011;22617;43.690;27.956;2022-09-21T04:54:17;450.77;;;151.77;;
18695;SDS011;22617;43.690;27.956;2022-09-21T04:59:21;236.13;;;82.93;;
18695;SDS011;22617;43.690;27.956;2022-09-21T05:04:26;248.27;;;87.20;;
18695;SDS011;22617;43.690;27.956;2022-09-21T05:09:30;99.03;;;35.00;;
18695;SDS011;22617;43.690;27.956;2022-09-21T05:14:51;11.07;;;5.00;;
18695;SDS011;22617;43.690;27.956;2022-09-21T05:19:58;33.90;;;12.30;;
18695;SDS011;22617;43.690;27.956;2022-09-21T05:25:01;8.60;;;3.87;;
18695;SDS011;22617;43.690;27.956;2022-09-21T05:30:06;14.60;;;4.23;;
18695;SDS011;22617;43.690;27.956;2022-09-21T05:35:14;8.93;;;4.30;;
18695;SDS011;22617;43.690;27.956;2022-09-21T05:40:27;5.83;;;3.20;;
18695;SDS011;22617;43.690;27.956;2022-09-21T05:45:31;18.13;;;7.80;;
18695;SDS011;22617;43.690;27.956;2022-09-21T05:50:42;6.13;;;3.07;;
18695;SDS011;22617;43.690;27.956;2022-09-21T05:55:55;6.10;;;3.17;;
18695;SDS011;22617;43.690;27.956;2022-09-21T06:01:09;5.83;;;2.20;;
18695;SDS011;22617;43.690;27.956;2022-09-21T06:06:23;6.03;;;2.43;;
18695;SDS011;22617;43.690;27.956;2022-09-21T06:11:27;3.10;;;2.00;;
18695;SDS011;22617;43.690;27.956;2022-09-21T06:16:40;3.77;;;2.00;;
18695;SDS011;22617;43.690;27.956;2022-09-21T06:21:46;5.30;;;1.70;;
18695;SDS011;22617;43.690;27.956;2022-09-21T06:26:49;3.10;;;2.20;;
18695;SDS011;22617;43.690;27.956;2022-09-21T06:31:53;1.30;;;1.20;;
18695;SDS011;22617;43.690;27.956;2022-09-21T06:36:58;3.27;;;1.30;;
18695;SDS011;22617;43.690;27.956;2022-09-21T06:42:01;5.60;;;2.70;;
18695;SDS011;22617;43.690;27.956;2022-09-21T06:47:05;2.80;;;1.40;;
18695;SDS011;22617;43.690;27.956;2022-09-21T06:52:10;3.33;;;1.17;;
18695;SDS011;22617;43.690;27.956;2022-09-21T06:57:13;3.33;;;1.97;;
18695;SDS011;22617;43.690;27.956;2022-09-21T07:02:16;2.23;;;1.50;;
18695;SDS011;22617;43.690;27.956;2022-09-21T07:07:21;3.93;;;1.10;;
18695;SDS011;22617;43.690;27.956;2022-09-21T07:12:25;1.30;;;1.00;;
18695;SDS011;22617;43.690;27.956;2022-09-21T07:17:30;1.80;;;1.20;;
18695;SDS011;22617;43.690;27.956;2022-09-21T07:22:36;1.97;;;0.93;;
18695;SDS011;22617;43.690;27.956;2022-09-21T07:27:39;1.43;;;1.10;;
18695;SDS011;22617;43.690;27.956;2022-09-21T07:32:43;1.67;;;1.10;;
18695;SDS011;22617;43.690;27.956;2022-09-21T07:37:48;2.43;;;1.40;;
18695;SDS011;22617;43.690;27.956;2022-09-21T07:42:51;4.17;;;1.40;;
18695;SDS011;22617;43.690;27.956;2022-09-21T07:48:01;2.00;;;1.40;;
18695;SDS011;22617;43.690;27.956;2022-09-21T07:53:06;5.30;;;1.43;;
18695;SDS011;22617;43.690;27.956;2022-09-21T07:58:10;3.90;;;1.23;;
18695;SDS011;22617;43.690;27.956;2022-09-21T08:03:31;1.30;;;1.10;;
18695;SDS011;22617;43.690;27.956;2022-09-21T08:08:35;5.47;;;1.10;;
18695;SDS011;22617;43.690;27.956;2022-09-21T08:13:40;3.07;;;1.03;;
18695;SDS011;22617;43.690;27.956;2022-09-21T08:18:44;1.87;;;0.90;;
18695;SDS011;22617;43.690;27.956;2022-09-21T08:23:48;1.67;;;1.00;;
18695;SDS011;22617;43.690;27.956;2022-09-21T08:28:52;2.93;;;1.10;;
18695;SDS011;22617;43.690;27.956;2022-09-21T08:33:59;3.27;;;1.10;;
18695;SDS011;22617;43.690;27.956;2022-09-21T08:39:06;1.50;;;1.00;;
18695;SDS011;22617;43.690;27.956;2022-09-21T08:44:12;1.47;;;0.97;;
18695;SDS011;22617;43.690;27.956;2022-09-21T08:49:20;1.57;;;1.00;;
18695;SDS011;22617;43.690;27.956;2022-09-21T08:54:29;1.07;;;0.80;;
18695;SDS011;22617;43.690;27.956;2022-09-21T08:59:41;1.70;;;0.80;;
18695;SDS011;22617;43.690;27.956;2022-09-21T09:04:49;0.80;;;0.63;;
18695;SDS011;22617;43.690;27.956;2022-09-21T09:10:05;0.85;;;0.63;;
18695;SDS011;22617;43.690;27.956;2022-09-21T09:20:56;2.80;;;0.82;;
18695;SDS011;22617;43.690;27.956;2022-09-21T09:26:05;4.47;;;0.75;;
18695;SDS011;22617;43.690;27.956;2022-09-21T09:31:15;1.00;;;0.80;;
18695;SDS011;22617;43.690;27.956;2022-09-21T09:36:23;2.60;;;1.17;;
18695;SDS011;22617;43.690;27.956;2022-09-21T09:41:55;1.15;;;0.57;;
18695;SDS011;22617;43.690;27.956;2022-09-21T09:47:10;2.63;;;0.70;;
18695;SDS011;22617;43.690;27.956;2022-09-21T09:52:27;1.85;;;0.70;;
18695;SDS011;22617;43.690;27.956;2022-09-21T09:57:32;1.08;;;0.70;;
18695;SDS011;22617;43.690;27.956;2022-09-21T10:02:44;3.22;;;0.82;;
18695;SDS011;22617;43.690;27.956;2022-09-21T10:07:50;2.22;;;0.80;;
18695;SDS011;22617;43.690;27.956;2022-09-21T10:12:56;2.05;;;0.70;;
18695;SDS011;22617;43.690;27.956;2022-09-21T10:18:10;1.40;;;0.90;;
18695;SDS011;22617;43.690;27.956;2022-09-21T10:23:19;1.50;;;0.60;;
18695;SDS011;22617;43.690;27.956;2022-09-21T10:28:24;1.73;;;0.60;;
18695;SDS011;22617;43.690;27.956;2022-09-21T10:33:29;1.67;;;0.60;;
18695;SDS011;22617;43.690;27.956;2022-09-21T10:38:32;1.17;;;0.70;;
18695;SDS011;22617;43.690;27.956;2022-09-21T10:43:40;2.22;;;0.80;;
18695;SDS011;22617;43.690;27.956;2022-09-21T10:48:45;1.08;;;0.70;;
18695;SDS011;22617;43.690;27.956;2022-09-21T10:53:48;1.90;;;0.70;;
18695;SDS011;22617;43.690;27.956;2022-09-21T10:59:16;0.90;;;0.80;;
18695;SDS011;22617;43.690;27.956;2022-09-21T11:04:27;2.25;;;0.95;;
18695;SDS011;22617;43.690;27.956;2022-09-21T11:09:36;1.33;;;0.73;;
18695;SDS011;22617;43.690;27.956;2022-09-21T11:14:47;1.48;;;0.70;;
18695;SDS011;22617;43.690;27.956;2022-09-21T11:19:58;2.80;;;0.90;;
18695;SDS011;22617;43.690;27.956;2022-09-21T11:25:18;1.58;;;0.80;;
18695;SDS011;22617;43.690;27.956;2022-09-21T11:30:35;1.67;;;0.80;;
18695;SDS011;22617;43.690;27.956;2022-09-21T11:35:48;2.38;;;0.90;;
18695;SDS011;22617;43.690;27.956;2022-09-21T11:41:11;3.40;;;0.70;;
18695;SDS011;22617;43.690;27.956;2022-09-21T11:46:28;1.58;;;0.80;;
18695;SDS011;22617;43.690;27.956;2022-09-21T11:51:42;1.00;;;0.80;;
18695;SDS011;22617;43.690;27.956;2022-09-21T11:57:00;5.72;;;0.85;;
18695;SDS011;22617;43.690;27.956;2022-09-21T12:02:35;4.05;;;0.80;;
18695;SDS011;22617;43.690;27.956;2022-09-21T12:08:01;3.70;;;1.20;;
18695;SDS011;22617;43.690;27.956;2022-09-21T12:13:23;9.95;;;2.80;;
18695;SDS011;22617;43.690;27.956;2022-09-21T12:18:35;18.07;;;9.63;;
18695;SDS011;22617;43.690;27.956;2022-09-21T12:23:49;5.90;;;3.30;;
18695;SDS011;22617;43.690;27.956;2022-09-21T12:28:56;4.03;;;1.40;;
18695;SDS011;22617;43.690;27.956;2022-09-21T12:34:08;3.00;;;0.75;;
18695;SDS011;22617;43.690;27.956;2022-09-21T12:39:19;1.42;;;0.73;;
18695;SDS011;22617;43.690;27.956;2022-09-21T12:44:27;2.45;;;0.90;;
18695;SDS011;22617;43.690;27.956;2022-09-21T12:49:55;4.97;;;1.60;;
18695;SDS011;22617;43.690;27.956;2022-09-21T12:55:06;3.40;;;2.43;;
18695;SDS011;22617;43.690;27.956;2022-09-21T13:00:27;6.60;;;2.80;;
18695;SDS011;22617;43.690;27.956;2022-09-21T13:05:41;9.38;;;4.35;;
18695;SDS011;22617;43.690;27.956;2022-09-21T13:10:57;23.53;;;9.37;;
18695;SDS011;22617;43.690;27.956;2022-09-21T13:16:05;22.70;;;11.37;;
18695;SDS011;22617;43.690;27.956;2022-09-21T13:21:25;10.40;;;5.00;;
18695;SDS011;22617;43.690;27.956;2022-09-21T13:26:35;19.03;;;9.50;;
18695;SDS011;22617;43.690;27.956;2022-09-21T13:31:50;88.83;;;37.20;;
18695;SDS011;22617;43.690;27.956;2022-09-21T13:42:43;16.30;;;6.43;;
18695;SDS011;22617;43.690;27.956;2022-09-21T13:47:49;4.57;;;2.30;;
18695;SDS011;22617;43.690;27.956;2022-09-21T13:52:56;4.40;;;1.30;;
18695;SDS011;22617;43.690;27.956;2022-09-21T13:58:04;2.40;;;1.10;;
18695;SDS011;22617;43.690;27.956;2022-09-21T14:03:22;1.93;;;1.00;;
18695;SDS011;22617;43.690;27.956;2022-09-21T14:08:30;4.70;;;1.37;;
18695;SDS011;22617;43.690;27.956;2022-09-21T14:13:38;4.53;;;1.40;;
18695;SDS011;22617;43.690;27.956;2022-09-21T14:18:45;6.27;;;1.37;;
18695;SDS011;22617;43.690;27.956;2022-09-21T14:24:15;2.53;;;1.10;;
18695;SDS011;22617;43.690;27.956;2022-09-21T14:29:23;3.20;;;1.30;;
18695;SDS011;22617;43.690;27.956;2022-09-21T14:34:30;12.67;;;4.93;;
18695;SDS011;22617;43.690;27.956;2022-09-21T14:39:39;5.17;;;2.10;;
18695;SDS011;22617;43.690;27.956;2022-09-21T14:44:46;10.00;;;1.83;;
18695;SDS011;22617;43.690;27.956;2022-09-21T14:50:06;4.20;;;1.53;;
18695;SDS011;22617;43.690;27.956;2022-09-21T14:55:22;3.27;;;1.63;;
18695;SDS011;22617;43.690;27.956;2022-09-21T15:00:35;1.63;;;1.10;;
18695;SDS011;22617;43.690;27.956;2022-09-21T15:05:41;3.97;;;1.13;;
18695;SDS011;22617;43.690;27.956;2022-09-21T15:10:52;3.43;;;1.20;;
18695;SDS011;22617;43.690;27.956;2022-09-21T15:16:08;2.47;;;1.33;;
18695;SDS011;22617;43.690;27.956;2022-09-21T15:21:21;2.30;;;1.10;;
18695;SDS011;22617;43.690;27.956;2022-09-21T15:26:30;2.30;;;1.20;;
18695;SDS011;22617;43.690;27.956;2022-09-21T15:31:37;1.83;;;1.57;;
18695;SDS011;22617;43.690;27.956;2022-09-21T15:36:42;2.57;;;1.80;;
18695;SDS011;22617;43.690;27.956;2022-09-21T15:41:47;2.93;;;1.50;;
18695;SDS011;22617;43.690;27.956;2022-09-21T15:46:56;2.83;;;2.03;;
18695;SDS011;22617;43.690;27.956;2022-09-21T15:52:02;2.70;;;2.03;;
18695;SDS011;22617;43.690;27.956;2022-09-21T15:57:23;2.93;;;2.30;;
18695;SDS011;22617;43.690;27.956;2022-09-21T16:02:38;3.43;;;2.40;;
18695;SDS011;22617;43.690;27.956;2022-09-21T16:07:44;5.83;;;2.17;;
18695;SDS011;22617;43.690;27.956;2022-09-21T16:12:49;5.07;;;2.53;;
18695;SDS011;22617;43.690;27.956;2022-09-21T16:17:54;4.43;;;2.10;;
18695;SDS011;22617;43.690;27.956;2022-09-21T16:23:03;3.07;;;2.27;;
18695;SDS011;22617;43.690;27.956;2022-09-21T16:33:55;3.37;;;2.37;;
18695;SDS011;22617;43.690;27.956;2022-09-21T16:39:01;3.10;;;2.10;;
18695;SDS011;22617;43.690;27.956;2022-09-21T16:44:08;3.03;;;2.10;;
18695;SDS011;22617;43.690;27.956;2022-09-21T16:49:19;2.57;;;1.67;;
18695;SDS011;22617;43.690;27.956;2022-09-21T16:54:30;2.30;;;1.60;;
18695;SDS011;22617;43.690;27.956;2022-09-21T16:59:35;1.83;;;1.37;;
18695;SDS011;22617;43.690;27.956;2022-09-21T17:04:40;1.93;;;1.40;;
18695;SDS011;22617;43.690;27.956;2022-09-21T17:09:44;2.40;;;1.50;;
18695;SDS011;22617;43.690;27.956;2022-09-21T17:14:48;2.60;;;1.47;;
18695;SDS011;22617;43.690;27.956;2022-09-21T17:19:54;2.80;;;1.47;;
18695;SDS011;22617;43.690;27.956;2022-09-21T17:24:58;3.30;;;1.90;;
18695;SDS011;22617;43.690;27.956;2022-09-21T17:30:07;3.93;;;1.63;;
18695;SDS011;22617;43.690;27.956;2022-09-21T17:35:16;2.03;;;1.60;;
18695;SDS011;22617;43.690;27.956;2022-09-21T17:40:31;1.97;;;1.50;;
18695;SDS011;22617;43.690;27.956;2022-09-21T17:45:37;3.07;;;1.90;;
18695;SDS011;22617;43.690;27.956;2022-09-21T17:50:45;2.40;;;1.63;;
18695;SDS011;22617;43.690;27.956;2022-09-21T17:55:53;2.27;;;1.83;;
18695;SDS011;22617;43.690;27.956;2022-09-21T18:01:00;2.70;;;1.60;;
18695;SDS011;22617;43.690;27.956;2022-09-21T18:06:13;3.70;;;1.53;;
18695;SDS011;22617;43.690;27.956;2022-09-21T18:11:23;2.83;;;1.80;;
18695;SDS011;22617;43.690;27.956;2022-09-21T18:16:43;2.30;;;1.83;;
18695;SDS011;22617;43.690;27.956;2022-09-21T18:21:58;3.03;;;2.10;;
18695;SDS011;22617;43.690;27.956;2022-09-21T18:27:05;2.97;;;2.00;;
18695;SDS011;22617;43.690;27.956;2022-09-21T18:32:16;2.20;;;1.87;;
18695;SDS011;22617;43.690;27.956;2022-09-21T18:37:33;2.47;;;1.50;;
18695;SDS011;22617;43.690;27.956;2022-09-21T18:42:45;2.20;;;1.60;;
18695;SDS011;22617;43.690;27.956;2022-09-21T18:48:01;2.23;;;1.57;;
18695;SDS011;22617;43.690;27.956;2022-09-21T18:53:15;3.90;;;1.70;;
18695;SDS011;22617;43.690;27.956;2022-09-21T18:58:25;2.50;;;1.67;;
18695;SDS011;22617;43.690;27.956;2022-09-21T19:03:31;2.27;;;1.60;;
18695;SDS011;22617;43.690;27.956;2022-09-21T19:08:38;2.40;;;1.70;;
18695;SDS011;22617;43.690;27.956;2022-09-21T19:13:50;4.13;;;1.83;;
18695;SDS011;22617;43.690;27.956;2022-09-21T19:19:06;2.80;;;2.03;;
18695;SDS011;22617;43.690;27.956;2022-09-21T19:24:21;4.77;;;2.00;;
18695;SDS011;22617;43.690;27.956;2022-09-21T19:29:33;3.57;;;2.03;;
18695;SDS011;22617;43.690;27.956;2022-09-21T19:34:43;3.60;;;1.80;;
18695;SDS011;22617;43.690;27.956;2022-09-21T19:39:49;2.87;;;1.70;;
18695;SDS011;22617;43.690;27.956;2022-09-21T19:45:00;3.33;;;1.80;;
18695;SDS011;22617;43.690;27.956;2022-09-21T19:50:12;2.63;;;1.70;;
18695;SDS011;22617;43.690;27.956;2022-09-21T19:55:20;3.40;;;2.10;;
18695;SDS011;22617;43.690;27.956;2022-09-21T20:00:42;6.03;;;3.07;;
18695;SDS011;22617;43.690;27.956;2022-09-21T20:05:50;3.70;;;1.83;;
18695;SDS011;22617;43.690;27.956;2022-09-21T20:11:11;4.90;;;2.03;;
18695;SDS011;22617;43.690;27.956;2022-09-21T20:16:31;3.47;;;2.07;;
18695;SDS011;22617;43.690;27.956;2022-09-21T20:21:40;2.07;;;1.70;;
18695;SDS011;22617;43.690;27.956;2022-09-21T20:26:47;2.20;;;1.77;;
18695;SDS011;22617;43.690;27.956;2022-09-21T20:31:52;2.80;;;2.00;;
18695;SDS011;22617;43.690;27.956;2022-09-21T20:36:56;3.30;;;2.10;;
18695;SDS011;22617;43.690;27.956;2022-09-21T20:42:01;2.53;;;2.00;;
18695;SDS011;22617;43.690;27.956;2022-09-21T20:47:07;4.00;;;1.90;;
18695;SDS011;22617;43.690;27.956;2022-09-21T20:52:10;3.53;;;2.30;;
18695;SDS011;22617;43.690;27.956;2022-09-21T20:57:16;2.60;;;1.90;;
18695;SDS011;22617;43.690;27.956;2022-09-21T21:02:20;2.50;;;1.90;;
18695;SDS011;22617;43.690;27.956;2022-09-21T21:07:24;1.80;;;1.60;;
18695;SDS011;22617;43.690;27.956;2022-09-21T21:12:32;2.07;;;1.60;;
18695;SDS011;22617;43.690;27.956;2022-09-21T21:17:36;2.10;;;1.90;;
18695;SDS011;22617;43.690;27.956;2022-09-21T21:22:40;2.30;;;1.83;;
18695;SDS011;22617;43.690;27.956;2022-09-21T21:27:44;2.47;;;1.70;;
18695;SDS011;22617;43.690;27.956;2022-09-21T21:32:48;2.73;;;1.80;;
18695;SDS011;22617;43.690;27.956;2022-09-21T21:37:53;3.03;;;1.70;;
18695;SDS011;22617;43.690;27.956;2022-09-21T21:42:57;2.60;;;2.00;;
18695;SDS011;22617;43.690;27.956;2022-09-21T21:48:01;2.07;;;1.50;;
18695;SDS011;22617;43.690;27.956;2022-09-21T21:53:05;2.67;;;1.80;;
18695;SDS011;22617;43.690;27.956;2022-09-21T21:58:10;2.27;;;1.90;;
18695;SDS011;22617;43.690;27.956;2022-09-21T22:03:13;3.30;;;2.10;;
18695;SDS011;22617;43.690;27.956;2022-09-21T22:08:17;2.70;;;2.20;;
18695;SDS011;22617;43.690;27.956;2022-09-21T22:13:23;3.07;;;2.47;;
18695;SDS011;22617;43.690;27.956;2022-09-21T22:18:26;2.93;;;2.20;;
18695;SDS011;22617;43.690;27.956;2022-09-21T22:23:30;2.63;;;2.10;;
18695;SDS011;22617;43.690;27.956;2022-09-21T22:28:36;3.37;;;2.50;;
18695;SDS011;22617;43.690;27.956;2022-09-21T22:33:40;3.60;;;2.40;;
18695;SDS011;22617;43.690;27.956;2022-09-21T22:38:45;3.70;;;2.60;;
18695;SDS011;22617;43.690;27.956;2022-09-21T22:43:52;3.13;;;2.23;;
18695;SDS011;22617;43.690;27.956;2022-09-21T22:48:56;3.50;;;2.50;;
18695;SDS011;22617;43.690;27.956;2022-09-21T22:54:01;3.50;;;2.50;;
18695;SDS011;22617;43.690;27.956;2022-09-21T22:59:06;3.23;;;2.33;;
18695;SDS011;22617;43.690;27.956;2022-09-21T23:04:10;3.37;;;2.40;;
18695;SDS011;22617;43.690;27.956;2022-09-21T23:09:16;3.13;;;2.50;;
18695;SDS011;22617;43.690;27.956;2022-09-21T23:14:22;3.50;;;2.37;;
18695;SDS011;22617;43.690;27.956;2022-09-21T23:19:26;3.53;;;2.37;;
18695;SDS011;22617;43.690;27.956;2022-09-21T23:24:29;4.53;;;2.47;;
18695;SDS011;22617;43.690;27.956;2022-09-21T23:29:34;3.27;;;2.20;;
18695;SDS011;22617;43.690;27.956;2022-09-21T23:34:38;3.10;;;2.33;;
18695;SDS011;22617;43.690;27.956;2022-09-21T23:39:42;5.07;;;2.60;;
18695;SDS011;22617;43.690;27.956;2022-09-21T23:44:47;4.17;;;2.47;;
18695;SDS011;22617;43.690;27.956;2022-09-21T23:49:50;3.33;;;2.53;;
18695;SDS011;22617;43.690;27.956;2022-09-21T23:54:54;5.70;;;2.87;;
18695;SDS011;22617;43.690;27.956;2022-09-21T23:59:59;3.00;;;2.60;;
